sensor_id;sensor_type;location;lat;lon;timestamp;temperature;humidity
39371;DHT22;25099;51.946;4.838;2023-07-31T00:02:22;17.50;99.90
39371;DHT22;25099;51.946;4.838;2023-07-31T00:04:48;17.50;99.90
39371;DHT22;25099;51.946;4.838;2023-07-31T00:07:14;17.50;99.90
39371;DHT22;25099;51.946;4.838;2023-07-31T00:09:40;17.60;99.90
39371;DHT22;25099;51.946;4.838;2023-07-31T00:12:06;17.60;99.90
39371;DHT22;25099;51.946;4.838;2023-07-31T00:14:31;17.60;99.90
39371;DHT22;25099;51.946;4.838;2023-07-31T00:16:57;17.60;99.90
39371;DHT22;25099;51.946;4.838;2023-07-31T00:19:23;17.60;99.90
39371;DHT22;25099;51.946;4.838;2023-07-31T00:21:48;17.70;99.90
39371;DHT22;25099;51.946;4.838;2023-07-31T00:24:14;17.60;99.90
39371;DHT22;25099;51.946;4.838;2023-07-31T00:26:39;17.60;99.90
39371;DHT22;25099;51.946;4.838;2023-07-31T00:29:05;17.50;99.90
39371;DHT22;25099;51.946;4.838;2023-07-31T00:31:30;18.20;99.90
39371;DHT22;25099;51.946;4.838;2023-07-31T00:33:56;17.50;99.90
39371;DHT22;25099;51.946;4.838;2023-07-31T00:36:22;17.50;99.90
39371;DHT22;25099;51.946;4.838;2023-07-31T00:38:47;17.50;99.90
39371;DHT22;25099;51.946;4.838;2023-07-31T00:41:13;17.50;99.90
39371;DHT22;25099;51.946;4.838;2023-07-31T00:43:38;17.50;99.90
39371;DHT22;25099;51.946;4.838;2023-07-31T00:46:04;17.50;99.90
39371;DHT22;25099;51.946;4.838;2023-07-31T00:48:30;18.20;99.90
39371;DHT22;25099;51.946;4.838;2023-07-31T00:50:56;17.50;99.90
39371;DHT22;25099;51.946;4.838;2023-07-31T00:53:22;17.50;99.90
39371;DHT22;25099;51.946;4.838;2023-07-31T00:55:50;17.50;99.90
39371;DHT22;25099;51.946;4.838;2023-07-31T00:58:16;17.50;99.90
39371;DHT22;25099;51.946;4.838;2023-07-31T01:00:41;17.50;99.90
39371;DHT22;25099;51.946;4.838;2023-07-31T01:03:07;17.50;99.90
39371;DHT22;25099;51.946;4.838;2023-07-31T01:08:29;17.50;99.90
39371;DHT22;25099;51.946;4.838;2023-07-31T01:11:25;17.50;99.90
39371;DHT22;25099;51.946;4.838;2023-07-31T01:13:53;17.40;99.90
39371;DHT22;25099;51.946;4.838;2023-07-31T01:16:20;17.40;99.90
39371;DHT22;25099;51.946;4.838;2023-07-31T01:18:45;17.40;99.90
39371;DHT22;25099;51.946;4.838;2023-07-31T01:26:49;17.10;99.90
39371;DHT22;25099;51.946;4.838;2023-07-31T01:29:23;17.00;99.90
39371;DHT22;25099;51.946;4.838;2023-07-31T01:31:53;16.90;99.90
39371;DHT22;25099;51.946;4.838;2023-07-31T01:34:21;16.90;99.90
39371;DHT22;25099;51.946;4.838;2023-07-31T01:36:47;16.90;99.90
39371;DHT22;25099;51.946;4.838;2023-07-31T01:39:13;16.90;99.90
39371;DHT22;25099;51.946;4.838;2023-07-31T01:41:40;16.90;99.90
39371;DHT22;25099;51.946;4.838;2023-07-31T01:44:06;17.00;99.90
39371;DHT22;25099;51.946;4.838;2023-07-31T01:46:32;17.00;99.90
39371;DHT22;25099;51.946;4.838;2023-07-31T01:48:57;17.00;99.90
39371;DHT22;25099;51.946;4.838;2023-07-31T01:51:23;17.00;99.90
39371;DHT22;25099;51.946;4.838;2023-07-31T01:53:48;17.10;99.90
39371;DHT22;25099;51.946;4.838;2023-07-31T01:56:14;17.10;99.90
39371;DHT22;25099;51.946;4.838;2023-07-31T01:58:40;17.10;99.90
39371;DHT22;25099;51.946;4.838;2023-07-31T02:01:05;17.20;99.90
39371;DHT22;25099;51.946;4.838;2023-07-31T02:03:31;17.30;99.90
39371;DHT22;25099;51.946;4.838;2023-07-31T02:05:57;17.30;99.90
39371;DHT22;25099;51.946;4.838;2023-07-31T02:08:22;17.30;99.90
39371;DHT22;25099;51.946;4.838;2023-07-31T02:10:48;17.30;99.90
39371;DHT22;25099;51.946;4.838;2023-07-31T02:13:13;17.30;99.90
39371;DHT22;25099;51.946;4.838;2023-07-31T02:15:39;17.30;99.90
39371;DHT22;25099;51.946;4.838;2023-07-31T02:18:04;17.40;99.90
39371;DHT22;25099;51.946;4.838;2023-07-31T02:20:33;17.40;99.90
39371;DHT22;25099;51.946;4.838;2023-07-31T02:22:59;17.40;99.90
39371;DHT22;25099;51.946;4.838;2023-07-31T02:25:25;17.80;99.90
39371;DHT22;25099;51.946;4.838;2023-07-31T02:27:50;17.40;99.90
39371;DHT22;25099;51.946;4.838;2023-07-31T02:30:16;17.40;99.90
39371;DHT22;25099;51.946;4.838;2023-07-31T02:32:41;17.40;99.90
39371;DHT22;25099;51.946;4.838;2023-07-31T02:35:07;17.30;99.90
39371;DHT22;25099;51.946;4.838;2023-07-31T02:37:34;17.40;99.90
39371;DHT22;25099;51.946;4.838;2023-07-31T02:39:59;17.40;99.90
39371;DHT22;25099;51.946;4.838;2023-07-31T02:42:25;17.90;99.90
39371;DHT22;25099;51.946;4.838;2023-07-31T02:44:50;17.40;99.90
39371;DHT22;25099;51.946;4.838;2023-07-31T02:47:21;17.40;99.90
39371;DHT22;25099;51.946;4.838;2023-07-31T02:49:47;17.40;99.90
39371;DHT22;25099;51.946;4.838;2023-07-31T02:52:12;17.40;99.90
39371;DHT22;25099;51.946;4.838;2023-07-31T02:54:38;17.70;99.90
39371;DHT22;25099;51.946;4.838;2023-07-31T02:57:04;17.40;99.90
39371;DHT22;25099;51.946;4.838;2023-07-31T02:59:29;17.40;99.90
39371;DHT22;25099;51.946;4.838;2023-07-31T03:01:55;17.30;99.90
39371;DHT22;25099;51.946;4.838;2023-07-31T03:04:21;17.40;99.90
39371;DHT22;25099;51.946;4.838;2023-07-31T03:06:46;17.40;99.90
39371;DHT22;25099;51.946;4.838;2023-07-31T03:09:12;17.40;99.90
39371;DHT22;25099;51.946;4.838;2023-07-31T03:11:37;17.40;99.90
39371;DHT22;25099;51.946;4.838;2023-07-31T03:14:03;17.40;99.90
39371;DHT22;25099;51.946;4.838;2023-07-31T03:16:29;17.40;99.90
39371;DHT22;25099;51.946;4.838;2023-07-31T03:18:54;17.40;99.90
39371;DHT22;25099;51.946;4.838;2023-07-31T03:21:20;17.40;99.90
39371;DHT22;25099;51.946;4.838;2023-07-31T03:23:45;17.70;99.90
39371;DHT22;25099;51.946;4.838;2023-07-31T03:26:11;17.40;99.90
39371;DHT22;25099;51.946;4.838;2023-07-31T03:28:37;17.40;99.90
39371;DHT22;25099;51.946;4.838;2023-07-31T03:31:02;17.50;99.90
39371;DHT22;25099;51.946;4.838;2023-07-31T03:33:28;17.40;99.90
39371;DHT22;25099;51.946;4.838;2023-07-31T03:35:53;17.40;99.90
39371;DHT22;25099;51.946;4.838;2023-07-31T03:38:19;17.30;99.90
39371;DHT22;25099;51.946;4.838;2023-07-31T03:40:45;17.30;99.90
39371;DHT22;25099;51.946;4.838;2023-07-31T03:43:11;17.40;99.90
39371;DHT22;25099;51.946;4.838;2023-07-31T03:45:37;17.30;99.90
39371;DHT22;25099;51.946;4.838;2023-07-31T03:48:04;17.20;99.90
39371;DHT22;25099;51.946;4.838;2023-07-31T03:50:29;17.20;99.90
39371;DHT22;25099;51.946;4.838;2023-07-31T03:52:55;17.20;99.90
39371;DHT22;25099;51.946;4.838;2023-07-31T03:55:20;17.20;99.90
39371;DHT22;25099;51.946;4.838;2023-07-31T03:57:47;17.20;99.90
39371;DHT22;25099;51.946;4.838;2023-07-31T04:00:13;17.20;99.90
39371;DHT22;25099;51.946;4.838;2023-07-31T04:02:39;17.10;99.90
39371;DHT22;25099;51.946;4.838;2023-07-31T04:05:04;17.00;99.90
39371;DHT22;25099;51.946;4.838;2023-07-31T04:07:30;17.00;99.90
39371;DHT22;25099;51.946;4.838;2023-07-31T04:09:57;17.00;99.90
39371;DHT22;25099;51.946;4.838;2023-07-31T04:12:23;16.90;99.90
39371;DHT22;25099;51.946;4.838;2023-07-31T04:14:49;16.90;99.90
39371;DHT22;25099;51.946;4.838;2023-07-31T04:17:15;16.90;99.90
39371;DHT22;25099;51.946;4.838;2023-07-31T04:19:42;17.00;99.90
39371;DHT22;25099;51.946;4.838;2023-07-31T04:22:08;16.90;99.90
39371;DHT22;25099;51.946;4.838;2023-07-31T04:24:33;16.80;99.90
39371;DHT22;25099;51.946;4.838;2023-07-31T04:26:59;16.80;99.90
39371;DHT22;25099;51.946;4.838;2023-07-31T04:29:24;16.70;99.90
39371;DHT22;25099;51.946;4.838;2023-07-31T04:31:50;16.70;99.90
39371;DHT22;25099;51.946;4.838;2023-07-31T04:34:16;16.70;99.90
39371;DHT22;25099;51.946;4.838;2023-07-31T04:36:41;16.70;99.90
39371;DHT22;25099;51.946;4.838;2023-07-31T04:39:07;16.70;99.90
39371;DHT22;25099;51.946;4.838;2023-07-31T04:41:32;16.70;99.90
39371;DHT22;25099;51.946;4.838;2023-07-31T04:43:58;16.60;99.90
39371;DHT22;25099;51.946;4.838;2023-07-31T04:46:23;16.90;99.90
39371;DHT22;25099;51.946;4.838;2023-07-31T04:48:49;16.60;99.90
39371;DHT22;25099;51.946;4.838;2023-07-31T04:51:14;16.80;99.90
39371;DHT22;25099;51.946;4.838;2023-07-31T04:53:40;16.60;99.90
39371;DHT22;25099;51.946;4.838;2023-07-31T04:56:06;16.60;99.90
39371;DHT22;25099;51.946;4.838;2023-07-31T04:58:31;16.60;99.90
39371;DHT22;25099;51.946;4.838;2023-07-31T05:00:57;16.60;99.90
39371;DHT22;25099;51.946;4.838;2023-07-31T05:03:22;16.60;99.90
39371;DHT22;25099;51.946;4.838;2023-07-31T05:05:49;16.50;99.90
39371;DHT22;25099;51.946;4.838;2023-07-31T05:08:15;16.50;99.90
39371;DHT22;25099;51.946;4.838;2023-07-31T05:10:43;16.50;99.90
39371;DHT22;25099;51.946;4.838;2023-07-31T05:13:08;16.50;99.90
39371;DHT22;25099;51.946;4.838;2023-07-31T05:15:34;16.50;99.90
39371;DHT22;25099;51.946;4.838;2023-07-31T05:17:59;16.50;99.90
39371;DHT22;25099;51.946;4.838;2023-07-31T05:20:25;16.50;99.90
39371;DHT22;25099;51.946;4.838;2023-07-31T05:22:51;16.50;99.90
39371;DHT22;25099;51.946;4.838;2023-07-31T05:25:16;16.50;99.90
39371;DHT22;25099;51.946;4.838;2023-07-31T05:27:42;16.50;99.90
39371;DHT22;25099;51.946;4.838;2023-07-31T05:30:08;16.50;99.90
39371;DHT22;25099;51.946;4.838;2023-07-31T05:32:34;16.50;99.90
39371;DHT22;25099;51.946;4.838;2023-07-31T05:34:59;16.50;99.90
39371;DHT22;25099;51.946;4.838;2023-07-31T05:37:25;16.50;99.90
39371;DHT22;25099;51.946;4.838;2023-07-31T05:39:51;16.50;99.90
39371;DHT22;25099;51.946;4.838;2023-07-31T05:42:17;16.50;99.90
39371;DHT22;25099;51.946;4.838;2023-07-31T05:44:43;16.50;99.90
39371;DHT22;25099;51.946;4.838;2023-07-31T05:47:09;16.70;99.90
39371;DHT22;25099;51.946;4.838;2023-07-31T05:49:35;16.50;99.90
39371;DHT22;25099;51.946;4.838;2023-07-31T05:52:00;16.50;99.90
39371;DHT22;25099;51.946;4.838;2023-07-31T05:54:26;16.90;99.90
39371;DHT22;25099;51.946;4.838;2023-07-31T05:56:51;16.50;99.90
39371;DHT22;25099;51.946;4.838;2023-07-31T05:59:17;16.50;99.90
39371;DHT22;25099;51.946;4.838;2023-07-31T06:01:42;16.50;99.90
39371;DHT22;25099;51.946;4.838;2023-07-31T06:04:08;16.50;99.90
39371;DHT22;25099;51.946;4.838;2023-07-31T06:06:34;16.60;99.90
39371;DHT22;25099;51.946;4.838;2023-07-31T06:08:59;16.60;99.90
39371;DHT22;25099;51.946;4.838;2023-07-31T06:11:25;16.60;99.90
39371;DHT22;25099;51.946;4.838;2023-07-31T06:13:51;16.60;99.90
39371;DHT22;25099;51.946;4.838;2023-07-31T06:16:16;16.60;99.90
39371;DHT22;25099;51.946;4.838;2023-07-31T06:18:42;16.60;99.90
39371;DHT22;25099;51.946;4.838;2023-07-31T06:21:09;16.60;99.90
39371;DHT22;25099;51.946;4.838;2023-07-31T06:23:35;16.60;99.90
39371;DHT22;25099;51.946;4.838;2023-07-31T06:26:00;16.60;99.90
39371;DHT22;25099;51.946;4.838;2023-07-31T06:28:29;16.90;99.90
39371;DHT22;25099;51.946;4.838;2023-07-31T06:30:55;16.70;99.90
39371;DHT22;25099;51.946;4.838;2023-07-31T06:33:21;16.60;99.90
39371;DHT22;25099;51.946;4.838;2023-07-31T06:35:47;16.70;99.90
39371;DHT22;25099;51.946;4.838;2023-07-31T06:38:12;16.70;99.90
39371;DHT22;25099;51.946;4.838;2023-07-31T06:40:38;16.70;99.90
39371;DHT22;25099;51.946;4.838;2023-07-31T06:43:03;16.70;99.90
39371;DHT22;25099;51.946;4.838;2023-07-31T06:45:36;16.70;99.90
39371;DHT22;25099;51.946;4.838;2023-07-31T06:48:03;16.80;99.90
39371;DHT22;25099;51.946;4.838;2023-07-31T06:50:30;16.80;99.90
39371;DHT22;25099;51.946;4.838;2023-07-31T06:52:57;16.80;99.90
39371;DHT22;25099;51.946;4.838;2023-07-31T06:55:26;16.80;99.90
39371;DHT22;25099;51.946;4.838;2023-07-31T06:57:53;17.40;99.90
39371;DHT22;25099;51.946;4.838;2023-07-31T07:00:20;16.80;99.90
39371;DHT22;25099;51.946;4.838;2023-07-31T07:02:46;16.90;99.90
39371;DHT22;25099;51.946;4.838;2023-07-31T07:05:14;16.80;99.90
39371;DHT22;25099;51.946;4.838;2023-07-31T07:07:40;16.80;99.90
39371;DHT22;25099;51.946;4.838;2023-07-31T07:10:07;16.90;99.90
39371;DHT22;25099;51.946;4.838;2023-07-31T07:12:33;16.90;99.90
39371;DHT22;25099;51.946;4.838;2023-07-31T07:15:02;16.90;99.90
39371;DHT22;25099;51.946;4.838;2023-07-31T07:17:29;16.80;99.90
39371;DHT22;25099;51.946;4.838;2023-07-31T07:19:58;16.90;99.90
39371;DHT22;25099;51.946;4.838;2023-07-31T07:22:24;16.90;99.90
39371;DHT22;25099;51.946;4.838;2023-07-31T07:24:51;17.00;99.90
39371;DHT22;25099;51.946;4.838;2023-07-31T07:27:16;17.00;99.90
39371;DHT22;25099;51.946;4.838;2023-07-31T07:29:42;17.00;99.90
39371;DHT22;25099;51.946;4.838;2023-07-31T07:32:08;17.00;99.90
39371;DHT22;25099;51.946;4.838;2023-07-31T07:34:33;17.00;99.90
39371;DHT22;25099;51.946;4.838;2023-07-31T07:36:59;17.00;99.90
39371;DHT22;25099;51.946;4.838;2023-07-31T07:39:33;17.30;99.90
39371;DHT22;25099;51.946;4.838;2023-07-31T07:42:02;17.10;99.90
39371;DHT22;25099;51.946;4.838;2023-07-31T07:44:40;17.00;99.90
39371;DHT22;25099;51.946;4.838;2023-07-31T07:47:20;17.10;99.90
39371;DHT22;25099;51.946;4.838;2023-07-31T07:49:58;17.10;99.90
39371;DHT22;25099;51.946;4.838;2023-07-31T07:52:42;17.10;99.90
39371;DHT22;25099;51.946;4.838;2023-07-31T07:55:20;17.30;99.90
39371;DHT22;25099;51.946;4.838;2023-07-31T07:57:54;17.20;99.90
39371;DHT22;25099;51.946;4.838;2023-07-31T08:00:28;17.20;99.90
39371;DHT22;25099;51.946;4.838;2023-07-31T08:02:57;17.20;99.90
39371;DHT22;25099;51.946;4.838;2023-07-31T08:05:29;17.20;99.90
39371;DHT22;25099;51.946;4.838;2023-07-31T08:07:59;16.90;99.90
39371;DHT22;25099;51.946;4.838;2023-07-31T08:10:25;17.20;99.90
39371;DHT22;25099;51.946;4.838;2023-07-31T08:15:24;17.20;99.90
39371;DHT22;25099;51.946;4.838;2023-07-31T08:17:56;17.20;99.90
39371;DHT22;25099;51.946;4.838;2023-07-31T08:20:26;17.90;99.90
39371;DHT22;25099;51.946;4.838;2023-07-31T08:22:52;17.30;99.90
39371;DHT22;25099;51.946;4.838;2023-07-31T08:25:21;17.30;99.90
39371;DHT22;25099;51.946;4.838;2023-07-31T08:27:54;17.30;99.90
39371;DHT22;25099;51.946;4.838;2023-07-31T08:30:29;17.40;99.90
39371;DHT22;25099;51.946;4.838;2023-07-31T08:32:55;17.40;99.90
39371;DHT22;25099;51.946;4.838;2023-07-31T08:35:27;17.40;99.90
39371;DHT22;25099;51.946;4.838;2023-07-31T08:37:55;17.30;99.90
39371;DHT22;25099;51.946;4.838;2023-07-31T08:40:24;17.40;99.90
39371;DHT22;25099;51.946;4.838;2023-07-31T08:42:59;18.20;99.90
39371;DHT22;25099;51.946;4.838;2023-07-31T08:45:36;17.40;99.90
39371;DHT22;25099;51.946;4.838;2023-07-31T08:48:02;17.40;99.90
39371;DHT22;25099;51.946;4.838;2023-07-31T08:50:43;17.40;99.90
39371;DHT22;25099;51.946;4.838;2023-07-31T08:53:09;17.50;99.90
39371;DHT22;25099;51.946;4.838;2023-07-31T08:55:36;17.50;99.90
39371;DHT22;25099;51.946;4.838;2023-07-31T08:58:04;17.60;99.90
39371;DHT22;25099;51.946;4.838;2023-07-31T09:00:31;17.60;99.90
39371;DHT22;25099;51.946;4.838;2023-07-31T09:03:03;17.60;99.90
39371;DHT22;25099;51.946;4.838;2023-07-31T09:05:30;17.70;99.90
39371;DHT22;25099;51.946;4.838;2023-07-31T09:07:56;17.70;99.90
39371;DHT22;25099;51.946;4.838;2023-07-31T09:10:22;17.70;99.90
39371;DHT22;25099;51.946;4.838;2023-07-31T09:12:50;17.70;99.90
39371;DHT22;25099;51.946;4.838;2023-07-31T09:15:16;17.80;99.90
39371;DHT22;25099;51.946;4.838;2023-07-31T09:17:42;17.80;99.90
39371;DHT22;25099;51.946;4.838;2023-07-31T09:20:21;17.80;99.90
39371;DHT22;25099;51.946;4.838;2023-07-31T09:22:48;17.80;99.90
39371;DHT22;25099;51.946;4.838;2023-07-31T09:25:21;17.70;99.90
39371;DHT22;25099;51.946;4.838;2023-07-31T09:30:17;17.80;99.90
39371;DHT22;25099;51.946;4.838;2023-07-31T09:32:44;17.80;99.90
39371;DHT22;25099;51.946;4.838;2023-07-31T09:35:20;17.80;99.90
39371;DHT22;25099;51.946;4.838;2023-07-31T09:37:55;17.80;99.90
39371;DHT22;25099;51.946;4.838;2023-07-31T09:40:31;17.90;99.90
39371;DHT22;25099;51.946;4.838;2023-07-31T09:42:59;17.90;99.90
39371;DHT22;25099;51.946;4.838;2023-07-31T09:45:25;17.90;99.90
39371;DHT22;25099;51.946;4.838;2023-07-31T09:47:51;17.90;99.90
39371;DHT22;25099;51.946;4.838;2023-07-31T09:50:19;17.90;99.90
39371;DHT22;25099;51.946;4.838;2023-07-31T09:52:45;17.90;99.90
39371;DHT22;25099;51.946;4.838;2023-07-31T09:55:10;17.90;99.90
39371;DHT22;25099;51.946;4.838;2023-07-31T09:57:48;17.90;99.90
39371;DHT22;25099;51.946;4.838;2023-07-31T10:00:16;17.90;99.90
39371;DHT22;25099;51.946;4.838;2023-07-31T10:02:45;17.90;99.90
39371;DHT22;25099;51.946;4.838;2023-07-31T10:05:15;17.90;99.90
39371;DHT22;25099;51.946;4.838;2023-07-31T10:07:51;17.90;99.90
39371;DHT22;25099;51.946;4.838;2023-07-31T10:10:19;18.00;99.90
39371;DHT22;25099;51.946;4.838;2023-07-31T10:12:45;18.10;99.90
39371;DHT22;25099;51.946;4.838;2023-07-31T10:15:12;18.10;99.90
39371;DHT22;25099;51.946;4.838;2023-07-31T10:17:38;18.00;99.90
39371;DHT22;25099;51.946;4.838;2023-07-31T10:20:04;18.40;99.90
39371;DHT22;25099;51.946;4.838;2023-07-31T10:22:31;18.10;99.90
39371;DHT22;25099;51.946;4.838;2023-07-31T10:25:00;18.40;99.90
39371;DHT22;25099;51.946;4.838;2023-07-31T10:27:26;18.10;99.90
39371;DHT22;25099;51.946;4.838;2023-07-31T10:29:54;18.10;99.90
39371;DHT22;25099;51.946;4.838;2023-07-31T10:32:20;18.10;99.90
39371;DHT22;25099;51.946;4.838;2023-07-31T10:34:47;18.20;99.90
39371;DHT22;25099;51.946;4.838;2023-07-31T10:37:23;18.20;99.90
39371;DHT22;25099;51.946;4.838;2023-07-31T10:42:38;18.10;99.90
39371;DHT22;25099;51.946;4.838;2023-07-31T10:45:10;18.10;99.90
39371;DHT22;25099;51.946;4.838;2023-07-31T10:47:44;18.10;99.90
39371;DHT22;25099;51.946;4.838;2023-07-31T10:50:17;18.10;99.90
39371;DHT22;25099;51.946;4.838;2023-07-31T10:52:52;18.10;99.90
39371;DHT22;25099;51.946;4.838;2023-07-31T10:55:26;18.30;99.90
39371;DHT22;25099;51.946;4.838;2023-07-31T10:57:56;18.10;99.90
39371;DHT22;25099;51.946;4.838;2023-07-31T11:00:25;18.10;99.90
39371;DHT22;25099;51.946;4.838;2023-07-31T11:03:04;18.10;99.90
39371;DHT22;25099;51.946;4.838;2023-07-31T11:05:53;18.10;99.90
39371;DHT22;25099;51.946;4.838;2023-07-31T11:08:24;18.10;99.90
39371;DHT22;25099;51.946;4.838;2023-07-31T11:15:59;18.00;99.90
39371;DHT22;25099;51.946;4.838;2023-07-31T11:18:26;18.10;99.90
39371;DHT22;25099;51.946;4.838;2023-07-31T11:20:52;18.00;99.90
39371;DHT22;25099;51.946;4.838;2023-07-31T11:23:19;18.30;99.90
39371;DHT22;25099;51.946;4.838;2023-07-31T11:25:45;18.10;99.90
39371;DHT22;25099;51.946;4.838;2023-07-31T11:28:12;18.00;99.90
39371;DHT22;25099;51.946;4.838;2023-07-31T11:30:40;18.00;99.90
39371;DHT22;25099;51.946;4.838;2023-07-31T11:33:10;18.10;99.90
39371;DHT22;25099;51.946;4.838;2023-07-31T11:35:43;18.50;99.90
39371;DHT22;25099;51.946;4.838;2023-07-31T11:38:23;18.00;99.90
39371;DHT22;25099;51.946;4.838;2023-07-31T11:40:50;18.00;99.90
39371;DHT22;25099;51.946;4.838;2023-07-31T11:43:15;18.10;99.90
39371;DHT22;25099;51.946;4.838;2023-07-31T11:45:49;18.00;99.90
39371;DHT22;25099;51.946;4.838;2023-07-31T11:48:25;18.00;99.90
39371;DHT22;25099;51.946;4.838;2023-07-31T11:51:02;18.00;99.90
39371;DHT22;25099;51.946;4.838;2023-07-31T11:53:33;18.00;99.90
39371;DHT22;25099;51.946;4.838;2023-07-31T11:56:01;18.00;99.90
39371;DHT22;25099;51.946;4.838;2023-07-31T11:58:30;18.00;99.90
39371;DHT22;25099;51.946;4.838;2023-07-31T12:00:57;18.00;99.90
39371;DHT22;25099;51.946;4.838;2023-07-31T12:03:23;18.20;99.90
39371;DHT22;25099;51.946;4.838;2023-07-31T12:05:49;18.10;99.90
39371;DHT22;25099;51.946;4.838;2023-07-31T12:08:15;18.00;99.90
39371;DHT22;25099;51.946;4.838;2023-07-31T12:10:41;18.00;99.90
39371;DHT22;25099;51.946;4.838;2023-07-31T12:13:12;18.30;99.90
39371;DHT22;25099;51.946;4.838;2023-07-31T12:15:42;18.10;99.90
39371;DHT22;25099;51.946;4.838;2023-07-31T12:18:10;18.10;99.90
39371;DHT22;25099;51.946;4.838;2023-07-31T12:20:43;18.10;99.90
39371;DHT22;25099;51.946;4.838;2023-07-31T12:23:18;18.20;99.90
39371;DHT22;25099;51.946;4.838;2023-07-31T12:25:44;18.20;99.90
39371;DHT22;25099;51.946;4.838;2023-07-31T12:28:10;18.70;99.90
39371;DHT22;25099;51.946;4.838;2023-07-31T12:30:40;18.20;99.90
39371;DHT22;25099;51.946;4.838;2023-07-31T12:33:12;18.10;99.90
39371;DHT22;25099;51.946;4.838;2023-07-31T12:35:40;18.20;99.90
39371;DHT22;25099;51.946;4.838;2023-07-31T12:38:06;18.80;99.90
39371;DHT22;25099;51.946;4.838;2023-07-31T12:40:32;18.20;99.90
39371;DHT22;25099;51.946;4.838;2023-07-31T12:43:00;18.20;99.90
39371;DHT22;25099;51.946;4.838;2023-07-31T12:45:27;18.30;99.90
39371;DHT22;25099;51.946;4.838;2023-07-31T12:47:53;18.30;99.90
39371;DHT22;25099;51.946;4.838;2023-07-31T12:50:19;18.30;99.90
39371;DHT22;25099;51.946;4.838;2023-07-31T12:52:44;18.20;99.90
39371;DHT22;25099;51.946;4.838;2023-07-31T12:55:10;18.50;99.90
39371;DHT22;25099;51.946;4.838;2023-07-31T12:57:36;18.30;99.90
39371;DHT22;25099;51.946;4.838;2023-07-31T13:00:03;18.50;99.90
39371;DHT22;25099;51.946;4.838;2023-07-31T13:02:28;18.20;99.90
39371;DHT22;25099;51.946;4.838;2023-07-31T13:04:54;18.20;99.90
39371;DHT22;25099;51.946;4.838;2023-07-31T13:07:22;18.20;99.90
39371;DHT22;25099;51.946;4.838;2023-07-31T13:09:47;18.50;99.90
39371;DHT22;25099;51.946;4.838;2023-07-31T13:12:13;18.20;99.90
39371;DHT22;25099;51.946;4.838;2023-07-31T13:14:39;18.20;99.90
39371;DHT22;25099;51.946;4.838;2023-07-31T13:17:04;18.20;99.90
39371;DHT22;25099;51.946;4.838;2023-07-31T13:19:30;18.20;99.90
39371;DHT22;25099;51.946;4.838;2023-07-31T13:21:55;18.80;99.90
39371;DHT22;25099;51.946;4.838;2023-07-31T13:24:21;18.30;99.90
39371;DHT22;25099;51.946;4.838;2023-07-31T13:26:46;18.30;99.90
39371;DHT22;25099;51.946;4.838;2023-07-31T13:29:12;18.30;99.90
39371;DHT22;25099;51.946;4.838;2023-07-31T13:31:37;18.30;99.90
39371;DHT22;25099;51.946;4.838;2023-07-31T13:34:03;18.30;99.90
39371;DHT22;25099;51.946;4.838;2023-07-31T13:36:29;18.30;99.90
39371;DHT22;25099;51.946;4.838;2023-07-31T13:38:54;18.30;99.90
39371;DHT22;25099;51.946;4.838;2023-07-31T13:41:20;18.30;99.90
39371;DHT22;25099;51.946;4.838;2023-07-31T13:43:46;18.40;99.90
39371;DHT22;25099;51.946;4.838;2023-07-31T13:46:11;18.70;99.90
39371;DHT22;25099;51.946;4.838;2023-07-31T13:48:37;18.40;99.90
39371;DHT22;25099;51.946;4.838;2023-07-31T13:51:03;18.50;99.90
39371;DHT22;25099;51.946;4.838;2023-07-31T13:53:28;18.40;99.90
39371;DHT22;25099;51.946;4.838;2023-07-31T13:55:54;18.50;99.90
39371;DHT22;25099;51.946;4.838;2023-07-31T13:58:20;18.50;99.90
39371;DHT22;25099;51.946;4.838;2023-07-31T14:00:46;18.50;99.90
39371;DHT22;25099;51.946;4.838;2023-07-31T14:03:12;18.80;99.90
39371;DHT22;25099;51.946;4.838;2023-07-31T14:05:37;18.60;99.90
39371;DHT22;25099;51.946;4.838;2023-07-31T14:08:03;19.00;99.90
39371;DHT22;25099;51.946;4.838;2023-07-31T14:10:29;18.70;99.90
39371;DHT22;25099;51.946;4.838;2023-07-31T14:12:54;18.60;99.90
39371;DHT22;25099;51.946;4.838;2023-07-31T14:15:20;18.60;99.90
39371;DHT22;25099;51.946;4.838;2023-07-31T14:17:45;18.50;99.90
39371;DHT22;25099;51.946;4.838;2023-07-31T14:20:11;18.40;99.90
39371;DHT22;25099;51.946;4.838;2023-07-31T14:22:37;18.50;99.90
39371;DHT22;25099;51.946;4.838;2023-07-31T14:25:03;18.40;99.90
39371;DHT22;25099;51.946;4.838;2023-07-31T14:27:29;18.40;99.90
39371;DHT22;25099;51.946;4.838;2023-07-31T14:29:55;18.40;99.90
39371;DHT22;25099;51.946;4.838;2023-07-31T14:32:22;18.40;99.90
39371;DHT22;25099;51.946;4.838;2023-07-31T14:34:49;18.40;99.90
39371;DHT22;25099;51.946;4.838;2023-07-31T14:37:14;18.40;99.90
39371;DHT22;25099;51.946;4.838;2023-07-31T14:39:40;18.40;99.90
39371;DHT22;25099;51.946;4.838;2023-07-31T14:42:05;18.30;99.90
39371;DHT22;25099;51.946;4.838;2023-07-31T14:44:31;18.30;99.90
39371;DHT22;25099;51.946;4.838;2023-07-31T14:46:57;18.30;99.90
39371;DHT22;25099;51.946;4.838;2023-07-31T14:49:22;18.20;99.90
39371;DHT22;25099;51.946;4.838;2023-07-31T14:51:48;19.00;99.90
39371;DHT22;25099;51.946;4.838;2023-07-31T14:54:13;18.50;99.90
39371;DHT22;25099;51.946;4.838;2023-07-31T14:56:39;18.70;99.90
39371;DHT22;25099;51.946;4.838;2023-07-31T14:59:04;18.90;99.90
39371;DHT22;25099;51.946;4.838;2023-07-31T15:01:30;18.20;99.90
39371;DHT22;25099;51.946;4.838;2023-07-31T15:03:55;18.50;99.90
39371;DHT22;25099;51.946;4.838;2023-07-31T15:06:21;18.10;99.90
39371;DHT22;25099;51.946;4.838;2023-07-31T15:08:47;18.10;99.90
39371;DHT22;25099;51.946;4.838;2023-07-31T15:11:12;18.10;99.90
39371;DHT22;25099;51.946;4.838;2023-07-31T15:13:39;18.30;99.90
39371;DHT22;25099;51.946;4.838;2023-07-31T15:16:05;18.10;99.90
39371;DHT22;25099;51.946;4.838;2023-07-31T15:18:30;18.20;99.90
39371;DHT22;25099;51.946;4.838;2023-07-31T15:20:56;18.20;99.90
39371;DHT22;25099;51.946;4.838;2023-07-31T15:23:21;18.20;99.90
39371;DHT22;25099;51.946;4.838;2023-07-31T15:25:49;18.10;99.90
39371;DHT22;25099;51.946;4.838;2023-07-31T15:28:14;18.90;99.90
39371;DHT22;25099;51.946;4.838;2023-07-31T15:30:41;18.10;99.90
39371;DHT22;25099;51.946;4.838;2023-07-31T15:33:06;18.30;99.90
39371;DHT22;25099;51.946;4.838;2023-07-31T15:35:32;18.30;99.90
39371;DHT22;25099;51.946;4.838;2023-07-31T15:37:57;18.10;99.90
39371;DHT22;25099;51.946;4.838;2023-07-31T15:40:23;18.10;99.90
39371;DHT22;25099;51.946;4.838;2023-07-31T15:42:48;18.00;99.90
39371;DHT22;25099;51.946;4.838;2023-07-31T15:45:14;18.00;99.90
39371;DHT22;25099;51.946;4.838;2023-07-31T15:47:39;18.60;99.90
39371;DHT22;25099;51.946;4.838;2023-07-31T15:50:06;18.10;99.90
39371;DHT22;25099;51.946;4.838;2023-07-31T15:52:31;18.10;99.90